Time;durP1;ratioP1;P1;durP2;ratioP2;P2;SDS_P1;SDS_P2;PMS_P1;PMS_P2;Temp;Humidity;BMP_temperature;BMP_pressure;BME280_temperature;BME280_humidity;BME280_pressure;Samples;Min_cycle;Max_cycle;Signal;HPM_P1;HPM_P2
2023/06/16 00:01:31;;;;;;;26.60;25.55;;;;;;;-141.02;100.00;107971.50;5135743;27;20279;-69
2023/06/16 00:03:58;;;;;;;23.83;22.92;;;;;;;-141.02;100.00;107971.50;5136860;27;20236;-68
2023/06/16 00:06:27;;;;;;;23.33;22.42;;;;;;;-141.02;100.00;107971.50;5136504;27;20193;-68
2023/06/16 00:08:57;;;;;;;21.25;20.45;;;;;;;-141.02;100.00;107971.50;5135863;27;20235;-68
2023/06/16 00:11:26;;;;;;;20.52;19.75;;;;;;;-141.02;100.00;107971.50;5136497;27;20245;-69
2023/06/16 00:13:57;;;;;;;21.30;20.50;;;;;;;-141.02;100.00;107971.50;5136256;27;20200;-69
2023/06/16 00:16:26;;;;;;;20.55;19.77;;;;;;;-141.02;100.00;107971.50;5135963;27;20279;-70
2023/06/16 00:18:57;;;;;;;19.17;18.48;;;;;;;-141.02;100.00;107971.50;5136218;27;20207;-70
2023/06/16 00:21:27;;;;;;;18.38;17.75;;;;;;;-141.02;100.00;107971.50;5136265;27;20185;-69
2023/06/16 00:23:56;;;;;;;17.23;16.63;;;;;;;-141.02;100.00;107971.50;5136062;27;20220;-69
2023/06/16 00:26:24;;;;;;;18.38;17.70;;;;;;;-141.02;100.00;107971.50;5135846;27;20241;-69
2023/06/16 00:28:51;;;;;;;18.42;17.75;;;;;;;-141.02;100.00;107971.50;5135721;27;20287;-69
2023/06/16 00:31:18;;;;;;;18.73;18.02;;;;;;;-141.02;100.00;107971.50;5135983;27;20269;-69
2023/06/16 00:33:45;;;;;;;17.80;17.20;;;;;;;-141.02;100.00;107971.50;5135646;27;20620;-70
2023/06/16 00:36:12;;;;;;;18.30;17.70;;;;;;;-141.02;100.00;107971.50;5135629;27;20663;-69
2023/06/16 00:38:39;;;;;;;15.70;15.20;;;;;;;-141.02;100.00;107971.50;5135907;27;20260;-68
2023/06/16 00:41:07;;;;;;;17.92;17.33;;;;;;;-141.02;100.00;107971.50;5135610;27;20220;-68
2023/06/16 00:43:34;;;;;;;18.27;17.67;;;;;;;-141.02;100.00;107971.50;5135626;27;20271;-68
2023/06/16 00:46:01;;;;;;;17.95;17.35;;;;;;;-141.02;100.00;107971.50;5135389;27;20192;-68
2023/06/16 00:48:28;;;;;;;18.35;17.75;;;;;;;-141.02;100.00;107971.50;5135271;27;20678;-68
2023/06/16 00:50:56;;;;;;;19.13;18.45;;;;;;;-141.02;100.00;107971.50;5135354;27;20646;-67
2023/06/16 00:53:25;;;;;;;19.63;18.95;;;;;;;-141.02;100.00;107971.50;5135634;27;20193;-68
2023/06/16 00:55:52;;;;;;;20.25;19.55;;;;;;;-141.02;100.00;107971.50;5135472;27;20223;-67
2023/06/16 00:58:22;;;;;;;20.77;20.08;;;;;;;-141.02;100.00;107971.50;5135183;27;20224;-67
2023/06/16 01:00:49;;;;;;;19.10;18.50;;;;;;;-141.02;100.00;107971.50;5135383;27;20192;-69
2023/06/16 01:03:16;;;;;;;17.95;17.35;;;;;;;-141.02;100.00;107971.50;5135082;27;20204;-67
2023/06/16 01:05:44;;;;;;;17.90;17.30;;;;;;;-141.02;100.00;107971.50;5135219;27;20582;-66
2023/06/16 01:08:17;;;;;;;17.05;16.52;;;;;;;-141.02;100.00;107971.50;5135101;27;20227;-66
2023/06/16 01:10:53;;;;;;;18.70;18.10;;;;;;;-141.02;100.00;107971.50;5134978;27;20192;-66
2023/06/16 01:13:32;;;;;;;17.10;16.60;;;;;;;-141.02;100.00;107971.50;5135273;27;20238;-67
2023/06/16 01:16:02;;;;;;;17.58;16.98;;;;;;;-141.02;100.00;107971.50;5135203;27;20188;-66
2023/06/16 01:18:30;;;;;;;18.08;17.48;;;;;;;-141.02;100.00;107971.50;5135359;27;20188;-66
2023/06/16 01:21:08;;;;;;;18.88;18.27;;;;;;;-141.02;100.00;107971.50;5134929;27;20197;-66
2023/06/16 01:23:52;;;;;;;19.70;19.00;;;;;;;-141.02;100.00;107971.50;5134729;27;20219;-67
2023/06/16 01:26:22;;;;;;;19.85;19.15;;;;;;;-141.02;100.00;107971.50;5134992;27;20307;-65
2023/06/16 01:28:50;;;;;;;19.73;19.02;;;;;;;-141.02;100.00;107971.50;5134930;27;20189;-66
2023/06/16 01:31:21;;;;;;;20.52;19.83;;;;;;;-141.02;100.00;107971.50;5134764;27;20231;-65
2023/06/16 01:33:49;;;;;;;23.02;22.20;;;;;;;-141.02;100.00;107971.50;5134823;27;20208;-66
2023/06/16 01:36:18;;;;;;;24.17;23.27;;;;;;;-141.02;100.00;107971.50;5134653;27;20281;-65
2023/06/16 01:38:47;;;;;;;26.35;25.35;;;;;;;-141.02;100.00;107971.50;5134727;27;20223;-65
2023/06/16 01:41:16;;;;;;;25.27;24.27;;;;;;;-141.02;100.00;107971.50;5134299;27;20619;-65
2023/06/16 01:43:45;;;;;;;27.17;26.10;;;;;;;-141.02;100.00;107971.50;5134616;27;20192;-66
2023/06/16 01:46:13;;;;;;;25.70;24.70;;;;;;;-141.02;100.00;107971.50;5134204;27;20263;-65
2023/06/16 01:48:40;;;;;;;25.70;24.70;;;;;;;-141.02;100.00;107971.50;5134482;27;20245;-65
2023/06/16 01:51:08;;;;;;;25.00;24.00;;;;;;;-141.02;100.00;107971.50;5134465;27;20261;-66
2023/06/16 01:53:35;;;;;;;25.50;24.50;;;;;;;-141.02;100.00;107971.50;5134373;27;20250;-66
2023/06/16 01:56:02;;;;;;;25.13;24.13;;;;;;;-141.02;100.00;107971.50;5134448;27;20228;-65
2023/06/16 01:58:30;;;;;;;25.25;24.25;;;;;;;-141.02;100.00;107971.50;5134323;27;20249;-65
2023/06/16 02:01:00;;;;;;;25.05;24.05;;;;;;;-141.02;100.00;107971.50;5133941;27;20735;-66
2023/06/16 02:03:32;;;;;;;23.95;23.05;;;;;;;-141.02;100.00;107971.50;5134249;27;20196;-65
2023/06/16 02:06:04;;;;;;;25.30;24.30;;;;;;;-141.02;100.00;107971.50;5134179;27;20212;-65
2023/06/16 02:08:34;;;;;;;24.33;23.35;;;;;;;-141.02;100.00;107971.50;5133880;27;20242;-65
2023/06/16 02:11:02;;;;;;;20.38;19.63;;;;;;;-141.02;100.00;107971.50;5133995;27;20557;-65
2023/06/16 02:13:31;;;;;;;22.90;22.05;;;;;;;-141.02;100.00;107971.50;5134048;27;20257;-66
2023/06/16 02:15:58;;;;;;;23.27;22.40;;;;;;;-141.02;100.00;107971.50;5133930;27;20658;-66
2023/06/16 02:18:27;;;;;;;25.90;24.90;;;;;;;-141.02;100.00;107971.50;5133945;27;20249;-65
2023/06/16 02:20:55;;;;;;;28.25;27.15;;;;;;;-141.02;100.00;107971.50;5133620;27;20283;-65
2023/06/16 02:23:22;;;;;;;27.88;26.77;;;;;;;-141.02;100.00;107971.50;5132970;27;20193;-66
2023/06/16 02:25:49;;;;;;;32.40;31.10;;;;;;;-141.02;100.00;107971.50;5133451;27;20224;-65
2023/06/16 02:28:17;;;;;;;32.05;30.75;;;;;;;-141.02;100.00;107971.50;5133403;27;20203;-66
2023/06/16 02:30:45;;;;;;;30.38;29.15;;;;;;;-141.02;100.00;107971.50;5133722;27;20245;-65
2023/06/16 02:33:13;;;;;;;27.30;26.20;;;;;;;-141.02;100.00;107971.50;5133701;27;20226;-65
2023/06/16 02:35:40;;;;;;;23.88;22.98;;;;;;;-141.02;100.00;107971.50;5133436;27;20672;-66
2023/06/16 02:38:08;;;;;;;22.83;21.92;;;;;;;-141.02;100.00;107971.50;5133558;27;20245;-65
2023/06/16 02:40:35;;;;;;;22.80;22.00;;;;;;;-141.02;100.00;107971.50;5133603;27;20192;-65
2023/06/16 02:43:02;;;;;;;20.63;19.92;;;;;;;-141.02;100.00;107971.50;5133583;27;20200;-65
2023/06/16 02:45:30;;;;;;;24.92;24.02;;;;;;;-141.02;100.00;107971.50;5133458;27;20221;-65
2023/06/16 02:47:58;;;;;;;31.65;30.35;;;;;;;-141.02;100.00;107971.50;5133263;27;20654;-66
2023/06/16 02:50:25;;;;;;;32.00;30.73;;;;;;;-141.02;100.00;107971.50;5133164;27;20217;-65
2023/06/16 02:52:52;;;;;;;42.72;40.92;;;;;;;-141.02;100.00;107971.50;5133497;27;20192;-65
2023/06/16 02:55:19;;;;;;;50.05;47.90;;;;;;;-141.02;100.00;107971.50;5133423;27;20224;-66
2023/06/16 02:57:46;;;;;;;55.10;52.70;;;;;;;-141.02;100.00;107971.50;5133420;27;20199;-65
2023/06/16 03:00:14;;;;;;;57.42;54.90;;;;;;;-141.02;100.00;107971.50;5133423;27;20307;-66
2023/06/16 03:02:42;;;;;;;48.28;46.17;;;;;;;-141.02;100.00;107971.50;5132901;27;20605;-65
2023/06/16 03:05:10;;;;;;;42.88;41.03;;;;;;;-141.02;100.00;107971.50;5132935;28;20693;-65
2023/06/16 03:07:38;;;;;;;38.17;36.60;;;;;;;-141.02;100.00;107971.50;5133100;27;20253;-65
2023/06/16 03:10:07;;;;;;;40.30;38.63;;;;;;;-141.02;100.00;107971.50;5133312;27;20185;-68
2023/06/16 03:12:34;;;;;;;42.03;40.25;;;;;;;-141.02;100.00;107971.50;5133240;27;20245;-65
2023/06/16 03:15:01;;;;;;;45.67;43.72;;;;;;;-141.02;100.00;107971.50;5133176;28;20687;-65
2023/06/16 03:17:28;;;;;;;38.28;36.67;;;;;;;-141.02;100.00;107971.50;5133206;28;20196;-65
2023/06/16 03:19:55;;;;;;;38.38;36.75;;;;;;;-141.02;100.00;107971.50;5132822;28;20235;-69
2023/06/16 03:22:24;;;;;;;31.80;30.52;;;;;;;-141.02;100.00;107971.50;5133102;28;20642;-65
2023/06/16 03:24:51;;;;;;;32.20;30.90;;;;;;;-141.02;100.00;107971.50;5132672;28;20319;-65
2023/06/16 03:27:18;;;;;;;31.55;30.30;;;;;;;-141.02;100.00;107971.50;5132794;28;20196;-67
2023/06/16 03:29:46;;;;;;;31.17;29.98;;;;;;;-141.02;100.00;107971.50;5133155;27;20225;-65
2023/06/16 03:32:13;;;;;;;32.20;30.92;;;;;;;-141.02;100.00;107971.50;5133068;28;20192;-65
2023/06/16 03:34:40;;;;;;;31.98;30.73;;;;;;;-141.02;100.00;107971.50;5134537;27;20198;-65
2023/06/16 03:37:07;;;;;;;30.80;29.60;;;;;;;-141.02;100.00;107971.50;5137119;27;20196;-65
2023/06/16 03:39:35;;;;;;;30.40;29.23;;;;;;;-141.02;100.00;107971.50;5137167;27;20254;-64
2023/06/16 03:42:03;;;;;;;29.33;28.23;;;;;;;-141.02;100.00;107971.50;5136807;27;20719;-64
2023/06/16 03:44:30;;;;;;;28.20;27.13;;;;;;;-141.02;100.00;107971.50;5136682;27;20249;-64
2023/06/16 03:46:57;;;;;;;24.77;23.88;;;;;;;-141.02;100.00;107971.50;5136678;27;20760;-64
2023/06/16 03:49:24;;;;;;;22.85;22.05;;;;;;;-141.02;100.00;107971.50;5136495;27;20197;-65
2023/06/16 03:51:51;;;;;;;20.35;19.65;;;;;;;-141.02;100.00;107971.50;5136576;27;20241;-64
2023/06/16 03:54:19;;;;;;;16.05;15.55;;;;;;;-141.02;100.00;107971.50;5136798;27;20203;-64
2023/06/16 03:56:47;;;;;;;15.98;15.48;;;;;;;-141.02;100.00;107971.50;5136416;27;20253;-63
2023/06/16 03:59:14;;;;;;;25.77;22.17;;;;;;;-141.02;100.00;107971.50;5136672;27;20245;-63
2023/06/16 04:01:42;;;;;;;14.40;14.00;;;;;;;-141.02;100.00;107971.50;5136605;27;20231;-63
2023/06/16 04:04:09;;;;;;;14.52;14.13;;;;;;;-141.02;100.00;107971.50;5136336;27;20287;-64
2023/06/16 04:06:37;;;;;;;13.13;12.73;;;;;;;-141.02;100.00;107971.50;5136262;27;20253;-63
2023/06/16 04:09:05;;;;;;;12.43;12.13;;;;;;;-141.02;100.00;107971.50;5136060;27;20650;-63
2023/06/16 04:11:32;;;;;;;10.93;10.63;;;;;;;-141.02;100.00;107971.50;5136510;27;20245;-63
2023/06/16 04:14:01;;;;;;;8.93;8.73;;;;;;;-141.02;100.00;107971.50;5135958;27;20200;-63
2023/06/16 04:16:27;;;;;;;8.50;8.30;;;;;;;-141.02;100.00;107971.50;5136421;27;20228;-62
2023/06/16 04:18:54;;;;;;;7.57;7.38;;;;;;;-141.02;100.00;107971.50;5136300;27;20287;-62
2023/06/16 04:21:21;;;;;;;6.68;6.47;;;;;;;-141.02;100.00;107971.50;5136327;27;20197;-62
2023/06/16 04:23:49;;;;;;;7.60;7.40;;;;;;;-141.02;100.00;107971.50;5136240;27;20196;-62
2023/06/16 04:26:21;;;;;;;6.85;6.65;;;;;;;-141.02;100.00;107971.50;5136051;27;20224;-61
2023/06/16 04:28:54;;;;;;;5.60;5.50;;;;;;;-141.02;100.00;107971.50;5135845;27;20189;-62
2023/06/16 04:31:23;;;;;;;5.50;5.40;;;;;;;-141.02;100.00;107971.50;5135833;27;20180;-62
2023/06/16 04:33:50;;;;;;;4.97;4.88;;;;;;;-141.02;100.00;107971.50;5136063;27;20245;-62
2023/06/16 04:36:19;;;;;;;4.90;4.80;;;;;;;-141.02;100.00;107971.50;5135929;27;20193;-62
2023/06/16 04:38:46;;;;;;;4.70;4.60;;;;;;;-141.02;100.00;107971.50;5135883;27;20292;-61
2023/06/16 04:41:13;;;;;;;4.53;4.43;;;;;;;-141.02;100.00;107971.50;5135871;27;20200;-63
2023/06/16 04:43:41;;;;;;;4.30;4.20;;;;;;;-141.02;100.00;107971.50;5135576;27;20658;-61
2023/06/16 04:46:08;;;;;;;4.10;4.00;;;;;;;-141.02;100.00;107971.50;5134746;27;20227;-62
2023/06/16 04:48:37;;;;;;;4.10;4.00;;;;;;;-141.02;100.00;107971.50;5135992;27;20220;-60
2023/06/16 04:51:04;;;;;;;4.60;4.50;;;;;;;-141.02;100.00;107971.50;5135425;27;20647;-60
2023/06/16 04:53:31;;;;;;;4.80;4.70;;;;;;;-141.02;100.00;107971.50;5135314;27;20204;-64
2023/06/16 04:55:58;;;;;;;5.18;5.07;;;;;;;-141.02;100.00;107971.50;5135334;27;20722;-60
2023/06/16 04:58:25;;;;;;;5.50;5.40;;;;;;;-141.02;100.00;107971.50;5135532;27;20224;-61
2023/06/16 05:00:52;;;;;;;6.30;6.10;;;;;;;-141.02;100.00;107971.50;5135473;27;20192;-60
2023/06/16 05:03:19;;;;;;;6.00;5.90;;;;;;;-141.02;100.00;107971.50;5135478;27;20197;-59
2023/06/16 05:05:48;;;;;;;5.50;5.40;;;;;;;-141.02;100.00;107971.50;5134989;27;20669;-60
2023/06/16 05:08:15;;;;;;;5.88;5.78;;;;;;;-141.02;100.00;107971.50;5134934;27;20778;-60
2023/06/16 05:10:42;;;;;;;6.00;5.90;;;;;;;-141.02;100.00;107971.50;5135255;27;20658;-63
2023/06/16 05:13:09;;;;;;;6.65;6.45;;;;;;;-141.02;100.00;107971.50;5134973;27;20200;-60
2023/06/16 05:15:36;;;;;;;6.90;6.70;;;;;;;-141.02;100.00;107971.50;5135265;27;20196;-60
2023/06/16 05:18:03;;;;;;;7.00;6.80;;;;;;;-141.02;100.00;107971.50;5135240;27;20214;-61
2023/06/16 05:20:31;;;;;;;8.30;8.10;;;;;;;-141.02;100.00;107971.50;5134838;27;20193;-60
2023/06/16 05:23:02;;;;;;;9.10;8.90;;;;;;;-141.02;100.00;107971.50;5134943;27;20227;-61
2023/06/16 05:25:29;;;;;;;9.57;9.27;;;;;;;-141.02;100.00;107971.50;5134969;27;20230;-61
2023/06/16 05:27:56;;;;;;;9.82;9.52;;;;;;;-141.02;100.00;107971.50;5134692;27;20668;-61
2023/06/16 05:30:23;;;;;;;9.43;9.13;;;;;;;-141.02;100.00;107971.50;5134652;27;20729;-61
2023/06/16 05:32:50;;;;;;;9.15;8.93;;;;;;;-141.02;100.00;107971.50;5134568;27;20673;-61
2023/06/16 05:35:17;;;;;;;8.50;8.30;;;;;;;-141.02;100.00;107971.50;5134791;27;20245;-61
2023/06/16 05:37:44;;;;;;;8.20;8.00;;;;;;;-141.02;100.00;107971.50;5134444;27;20623;-61
2023/06/16 05:40:13;;;;;;;8.30;8.10;;;;;;;-141.02;100.00;107971.50;5134740;27;20271;-61
2023/06/16 05:42:40;;;;;;;8.23;8.02;;;;;;;-141.02;100.00;107971.50;5134733;27;20220;-62
2023/06/16 05:45:08;;;;;;;8.30;8.10;;;;;;;-141.02;100.00;107971.50;5134619;27;20197;-64
2023/06/16 05:47:35;;;;;;;7.47;7.28;;;;;;;-141.02;100.00;107971.50;5134540;27;20223;-62
2023/06/16 05:50:02;;;;;;;7.70;7.50;;;;;;;-141.02;100.00;107971.50;5134279;27;20193;-61
2023/06/16 05:52:30;;;;;;;7.20;7.00;;;;;;;-141.02;100.00;107971.50;5134469;27;20196;-62
2023/06/16 05:54:58;;;;;;;7.50;7.30;;;;;;;-141.02;100.00;107971.50;5134446;27;20228;-62
2023/06/16 05:57:27;;;;;;;7.80;7.60;;;;;;;-141.02;100.00;107971.50;5133317;27;20574;-63
2023/06/16 05:59:54;;;;;;;8.50;8.30;;;;;;;-141.02;100.00;107971.50;5133909;27;20196;-65
2023/06/16 06:02:21;;;;;;;9.10;8.80;;;;;;;-141.02;100.00;107971.50;5134309;27;20727;-66
2023/06/16 06:04:49;;;;;;;9.18;8.88;;;;;;;-141.02;100.00;107971.50;5133944;27;20204;-62
2023/06/16 06:07:16;;;;;;;10.32;10.02;;;;;;;-141.02;100.00;107971.50;5133769;27;20649;-62
2023/06/16 06:09:43;;;;;;;11.00;10.60;;;;;;;-141.02;100.00;107971.50;5133603;27;20256;-62
2023/06/16 06:12:11;;;;;;;11.65;11.25;;;;;;;-141.02;100.00;107971.50;5134014;27;20265;-63
2023/06/16 06:14:40;;;;;;;12.98;12.48;;;;;;;-141.02;100.00;107971.50;5133998;27;20201;-62
2023/06/16 06:17:07;;;;;;;13.30;12.80;;;;;;;-141.02;100.00;107971.50;5134006;27;20261;-63
2023/06/16 06:19:34;;;;;;;13.73;13.23;;;;;;;-141.02;100.00;107971.50;5133980;27;20554;-62
2023/06/16 06:22:01;;;;;;;13.40;12.90;;;;;;;-141.02;100.00;107971.50;5133593;27;20280;-62
2023/06/16 06:24:28;;;;;;;13.98;13.48;;;;;;;-141.02;100.00;107971.50;5133878;27;20200;-62
2023/06/16 06:26:57;;;;;;;12.90;12.40;;;;;;;-141.02;100.00;107971.50;5133707;27;20224;-62
2023/06/16 06:29:24;;;;;;;13.10;12.60;;;;;;;-141.02;100.00;107971.50;5133465;27;20197;-70
2023/06/16 06:31:52;;;;;;;13.50;13.00;;;;;;;-141.02;100.00;107971.50;5133467;27;20279;-66
2023/06/16 06:34:19;;;;;;;14.30;13.70;;;;;;;-141.02;100.00;107971.50;5133361;27;20196;-63
2023/06/16 06:36:48;;;;;;;13.18;12.68;;;;;;;-141.02;100.00;107971.50;5133328;27;20235;-62
2023/06/16 06:39:15;;;;;;;14.90;14.30;;;;;;;-141.02;100.00;107971.50;5133630;27;20188;-62
2023/06/16 06:41:42;;;;;;;14.70;14.10;;;;;;;-141.02;100.00;107971.50;5133293;27;20655;-64
2023/06/16 06:44:09;;;;;;;14.40;13.90;;;;;;;-141.02;100.00;107971.50;5133548;27;20245;-63
2023/06/16 06:46:36;;;;;;;14.18;13.68;;;;;;;-141.02;100.00;107971.50;5133474;27;20266;-62
2023/06/16 06:49:04;;;;;;;14.90;14.30;;;;;;;-141.02;100.00;107971.50;5133529;27;20196;-62
2023/06/16 06:51:31;;;;;;;16.23;15.48;;;;;;;-141.02;100.00;107971.50;5133426;27;20253;-62
2023/06/16 06:53:58;;;;;;;16.30;15.50;;;;;;;-141.02;100.00;107971.50;5133119;27;20295;-62
2023/06/16 06:56:25;;;;;;;15.85;15.15;;;;;;;-141.02;100.00;107971.50;5133035;27;20279;-62
2023/06/16 06:58:52;;;;;;;15.68;14.88;;;;;;;-141.02;100.00;107971.50;5133405;27;20196;-61
2023/06/16 07:01:19;;;;;;;17.33;16.42;;;;;;;-141.02;100.00;107971.50;5133350;27;20196;-62
2023/06/16 07:03:46;;;;;;;16.30;15.60;;;;;;;-141.02;100.00;107971.50;5132963;27;20245;-61
2023/06/16 07:06:15;;;;;;;15.43;14.73;;;;;;;-141.02;100.00;107971.50;5132876;28;20263;-61
2023/06/16 07:08:42;;;;;;;16.25;15.55;;;;;;;-141.02;100.00;107971.50;5132507;27;20303;-61
2023/06/16 07:11:09;;;;;;;16.10;15.40;;;;;;;-141.02;100.00;107971.50;5133609;27;20677;-61
2023/06/16 07:13:36;;;;;;;16.02;15.32;;;;;;;-141.02;100.00;107971.50;5132892;28;20192;-66
2023/06/16 07:16:03;;;;;;;17.30;16.40;;;;;;;-141.02;100.00;107971.50;5132917;28;20188;-67
2023/06/16 07:18:30;;;;;;;17.15;16.25;;;;;;;-141.02;100.00;107971.50;5132865;27;20654;-61
2023/06/16 07:20:57;;;;;;;17.67;16.67;;;;;;;-141.02;100.00;107971.50;5133046;28;20334;-61
2023/06/16 07:23:26;;;;;;;17.23;16.23;;;;;;;-141.02;100.00;107971.50;5133156;27;20196;-61
2023/06/16 07:25:54;;;;;;;17.38;16.40;;;;;;;-141.02;100.00;107971.50;5133053;28;20193;-61
2023/06/16 07:28:21;;;;;;;18.00;17.10;;;;;;;-141.02;100.00;107971.50;5133350;28;20574;-61
2023/06/16 07:30:48;;;;;;;16.70;15.90;;;;;;;-141.02;100.00;107971.50;5132716;27;20245;-68
2023/06/16 07:33:15;;;;;;;16.33;15.52;;;;;;;-141.02;100.00;107971.50;5132609;28;20192;-64
2023/06/16 07:35:42;;;;;;;16.42;15.52;;;;;;;-141.02;100.00;107971.50;5132685;28;20654;-62
2023/06/16 07:38:09;;;;;;;16.95;16.05;;;;;;;-141.02;100.00;107971.50;5132651;28;20199;-61
2023/06/16 07:40:37;;;;;;;17.40;16.50;;;;;;;-141.02;100.00;107971.50;5132649;28;20687;-61
2023/06/16 07:43:04;;;;;;;17.50;16.60;;;;;;;-141.02;100.00;107971.50;5132636;28;20283;-60
2023/06/16 07:45:33;;;;;;;16.98;16.08;;;;;;;-141.02;100.00;107971.50;5132899;27;20253;-60
2023/06/16 07:48:00;;;;;;;17.05;16.05;;;;;;;-141.02;100.00;107971.50;5132463;28;20228;-60
2023/06/16 07:50:27;;;;;;;16.73;15.82;;;;;;;-141.02;100.00;107971.50;5132464;28;20196;-60
2023/06/16 07:52:54;;;;;;;16.50;15.60;;;;;;;-141.02;100.00;107971.50;5132823;27;20192;-60
2023/06/16 07:55:21;;;;;;;16.58;15.68;;;;;;;-141.02;100.00;107971.50;5132815;28;20268;-60
2023/06/16 07:57:50;;;;;;;16.88;15.88;;;;;;;-141.02;100.00;107971.50;5132429;28;20189;-60
2023/06/16 08:00:19;;;;;;;17.00;15.95;;;;;;;-141.02;100.00;107971.50;5132408;28;20280;-60
2023/06/16 08:02:46;;;;;;;17.02;16.02;;;;;;;-141.02;100.00;107971.50;5132478;27;20254;-60
2023/06/16 08:05:16;;;;;;;17.30;16.20;;;;;;;-141.02;100.00;107971.50;5132433;28;20212;-60
2023/06/16 08:07:43;;;;;;;17.50;16.40;;;;;;;-141.02;100.00;107971.50;5132357;28;20228;-59
2023/06/16 08:10:11;;;;;;;17.33;16.30;;;;;;;-141.02;100.00;107971.50;5132780;28;20185;-60
2023/06/16 08:12:38;;;;;;;17.75;16.75;;;;;;;-141.02;100.00;107971.50;5132409;28;20204;-61
2023/06/16 08:15:08;;;;;;;17.13;16.13;;;;;;;-141.02;100.00;107971.50;5132648;27;20196;-60
2023/06/16 08:17:36;;;;;;;17.10;16.10;;;;;;;-141.02;100.00;107971.50;5132652;28;20231;-60
2023/06/16 08:20:05;;;;;;;17.38;16.27;;;;;;;-141.02;100.00;107971.50;5132228;27;20658;-60
2023/06/16 08:22:32;;;;;;;17.92;16.63;;;;;;;-141.02;100.00;107971.50;5135228;27;20200;-60
2023/06/16 08:25:01;;;;;;;18.40;17.10;;;;;;;-141.02;100.00;107971.50;5135896;27;20204;-64
2023/06/16 08:27:28;;;;;;;17.92;16.63;;;;;;;-141.02;100.00;107971.50;5135761;27;20231;-59
2023/06/16 08:29:55;;;;;;;18.30;17.00;;;;;;;-141.02;100.00;107971.50;5135832;27;20188;-60
2023/06/16 08:32:23;;;;;;;17.80;16.70;;;;;;;-141.02;100.00;107971.50;5135773;27;20288;-60
2023/06/16 08:34:50;;;;;;;19.65;18.35;;;;;;;-141.02;100.00;107971.50;5135828;27;20287;-59
2023/06/16 08:37:17;;;;;;;18.02;16.75;;;;;;;-141.02;100.00;107971.50;5135648;27;20545;-59
2023/06/16 08:39:45;;;;;;;17.80;16.50;;;;;;;-141.02;100.00;107971.50;5135967;27;20231;-59
2023/06/16 08:42:12;;;;;;;17.85;16.58;;;;;;;-141.02;100.00;107971.50;5135581;27;20253;-60
2023/06/16 08:44:40;;;;;;;17.75;16.55;;;;;;;-141.02;100.00;107971.50;5135908;27;20207;-60
2023/06/16 08:47:08;;;;;;;17.65;16.35;;;;;;;-141.02;100.00;107971.50;5135408;27;20224;-59
2023/06/16 08:49:39;;;;;;;17.88;16.60;;;;;;;-141.02;100.00;107971.50;5135783;27;20196;-59
2023/06/16 08:52:09;;;;;;;18.25;16.95;;;;;;;-141.02;100.00;107971.50;5135465;27;20546;-62
2023/06/16 08:54:39;;;;;;;18.08;16.88;;;;;;;-141.02;100.00;107971.50;5135641;27;20200;-62
2023/06/16 08:57:11;;;;;;;18.10;16.90;;;;;;;-141.02;100.00;107971.50;5135331;27;20184;-60
2023/06/16 08:59:39;;;;;;;16.85;15.75;;;;;;;-141.02;100.00;107971.50;5135231;27;20259;-61
2023/06/16 09:02:07;;;;;;;17.13;16.02;;;;;;;-141.02;100.00;107971.50;5135189;27;20206;-64
2023/06/16 09:04:37;;;;;;;16.15;15.15;;;;;;;-141.02;100.00;107971.50;5135127;27;20682;-59
2023/06/16 09:07:05;;;;;;;17.25;16.15;;;;;;;-141.02;100.00;107971.50;5135127;27;20213;-60
2023/06/16 09:09:32;;;;;;;17.65;16.45;;;;;;;-141.02;100.00;107971.50;5134866;27;20608;-60
2023/06/16 09:12:08;;;;;;;17.25;16.25;;;;;;;-141.02;100.00;107971.50;5135381;27;20196;-59
2023/06/16 09:14:38;;;;;;;16.92;15.82;;;;;;;-141.02;100.00;107971.50;5134959;27;20687;-66
2023/06/16 09:17:08;;;;;;;16.48;15.38;;;;;;;-141.02;100.00;107971.50;5135248;27;20239;-65
2023/06/16 09:19:47;;;;;;;16.55;15.45;;;;;;;-141.02;100.00;107971.50;5135307;27;20192;-58
2023/06/16 09:22:18;;;;;;;16.90;15.73;;;;;;;-141.02;100.00;107971.50;5135232;27;20180;-63
2023/06/16 09:24:45;;;;;;;16.52;15.43;;;;;;;-141.02;100.00;107971.50;5135051;27;20181;-59
2023/06/16 09:27:12;;;;;;;15.57;14.68;;;;;;;-141.02;100.00;107971.50;5134595;27;20784;-59
2023/06/16 09:29:39;;;;;;;17.17;15.98;;;;;;;-141.02;100.00;107971.50;5134713;27;20188;-59
2023/06/16 09:32:08;;;;;;;17.35;16.15;;;;;;;-141.02;100.00;107971.50;5134798;27;20192;-60
2023/06/16 09:34:37;;;;;;;18.10;16.70;;;;;;;-141.02;100.00;107971.50;5134566;27;20231;-59
2023/06/16 09:37:07;;;;;;;18.05;16.75;;;;;;;-141.02;100.00;107971.50;5134715;27;20200;-60
2023/06/16 09:39:35;;;;;;;17.63;16.33;;;;;;;-141.02;100.00;107971.50;5134831;27;20249;-71
2023/06/16 09:42:02;;;;;;;17.85;16.63;;;;;;;-141.02;100.00;107971.50;5134754;27;20228;-59
2023/06/16 09:44:31;;;;;;;18.55;17.05;;;;;;;-141.02;100.00;107971.50;5134682;27;20189;-58
2023/06/16 09:47:00;;;;;;;20.33;18.73;;;;;;;-141.02;100.00;107971.50;5134302;27;20653;-59
2023/06/16 09:49:27;;;;;;;19.25;17.55;;;;;;;-141.02;100.00;107971.50;5134545;27;20192;-59
2023/06/16 09:51:56;;;;;;;18.80;17.20;;;;;;;-141.02;100.00;107971.50;5134179;27;20193;-59
2023/06/16 09:54:26;;;;;;;19.65;17.85;;;;;;;-141.02;100.00;107971.50;5134440;27;20214;-59
2023/06/16 09:56:55;;;;;;;19.40;17.60;;;;;;;-141.02;100.00;107971.50;5134475;27;20239;-59
2023/06/16 09:59:25;;;;;;;19.80;18.00;;;;;;;-141.02;100.00;107971.50;5134336;27;20200;-60
2023/06/16 10:01:55;;;;;;;21.05;18.85;;;;;;;-141.02;100.00;107971.50;5134172;27;20722;-61
2023/06/16 10:04:23;;;;;;;21.23;19.02;;;;;;;-141.02;100.00;107971.50;5134025;27;20196;-59
2023/06/16 10:06:54;;;;;;;22.13;19.40;;;;;;;-141.02;100.00;107971.50;5133819;27;20680;-59
2023/06/16 10:09:28;;;;;;;21.00;18.77;;;;;;;-141.02;100.00;107971.50;5133776;27;20621;-60
2023/06/16 10:11:56;;;;;;;22.70;19.55;;;;;;;-141.02;100.00;107971.50;5134178;27;20237;-62
2023/06/16 10:14:28;;;;;;;20.95;18.75;;;;;;;-141.02;100.00;107971.50;5134077;27;20295;-59
2023/06/16 10:16:57;;;;;;;23.45;19.95;;;;;;;-141.02;95.38;107971.50;5134102;27;20225;-59
2023/06/16 10:19:25;;;;;;;24.40;20.70;;;;;;;-141.02;93.71;107971.50;5133692;27;20654;-59
2023/06/16 10:21:53;;;;;;;24.15;21.17;;;;;;;-141.02;97.86;107971.50;5133585;27;20677;-60
2023/06/16 10:24:21;;;;;;;23.17;20.67;;;;;;;-141.02;96.32;107971.50;5133669;27;20200;-64
2023/06/16 10:26:51;;;;;;;24.08;20.80;;;;;;;-141.02;97.19;107971.50;5133518;27;20189;-59
2023/06/16 10:29:20;;;;;;;23.73;20.85;;;;;;;-141.02;96.50;107971.50;5133608;27;20188;-59
2023/06/16 10:31:49;;;;;;;22.08;19.77;;;;;;;-141.02;94.51;107971.50;5133511;27;20227;-59
2023/06/16 10:34:20;;;;;;;24.30;21.65;;;;;;;-141.02;95.02;107971.50;5133436;27;20196;-59
2023/06/16 10:36:51;;;;;;;23.48;20.98;;;;;;;-141.02;92.46;107971.50;5133815;27;20193;-58
2023/06/16 10:39:18;;;;;;;21.92;19.52;;;;;;;-141.02;99.98;107971.50;5133742;27;20188;-58
2023/06/16 10:41:55;;;;;;;23.63;20.42;;;;;;;-141.02;89.78;107971.50;5133720;27;20276;-59
2023/06/16 10:44:23;;;;;;;22.83;20.33;;;;;;;-141.02;96.08;107971.50;5133157;27;20283;-59
2023/06/16 10:47:23;;;;;;;23.27;20.73;;;;;;;-141.02;91.69;107971.50;5133625;27;20192;-60
2023/06/16 10:49:55;;;;;;;26.85;23.90;;;;;;;-141.02;89.36;107969.53;5133573;27;20271;-59
2023/06/16 10:52:33;;;;;;;26.88;23.98;;;;;;;-141.02;95.77;107971.50;5133210;27;20283;-59
2023/06/16 10:55:17;;;;;;;27.02;24.10;;;;;;;-141.02;91.12;107969.53;5133138;27;20192;-60